sensor_id;sensor_type;location;lat;lon;timestamp;pressure;altitude;pressure_sealevel;temperature;humidity
2188;BME280;1100;52.014;8.540;2023-04-09T00:00:20;101202.38;;;2.50;76.88
2188;BME280;1100;52.014;8.540;2023-04-09T00:02:46;101200.81;;;2.49;76.81
2188;BME280;1100;52.014;8.540;2023-04-09T00:05:11;101194.00;;;2.43;76.80
2188;BME280;1100;52.014;8.540;2023-04-09T00:07:36;101200.09;;;2.36;76.62
2188;BME280;1100;52.014;8.540;2023-04-09T00:10:02;101199.56;;;2.30;76.82
2188;BME280;1100;52.014;8.540;2023-04-09T00:12:27;101193.88;;;2.23;76.46
2188;BME280;1100;52.014;8.540;2023-04-09T00:14:54;101200.44;;;2.18;76.70
2188;BME280;1100;52.014;8.540;2023-04-09T00:17:20;101200.38;;;2.15;76.77
2188;BME280;1100;52.014;8.540;2023-04-09T00:19:45;101186.03;;;2.05;76.38
2188;BME280;1100;52.014;8.540;2023-04-09T00:22:10;101182.31;;;1.97;76.50
2188;BME280;1100;52.014;8.540;2023-04-09T00:24:36;101191.59;;;1.93;76.42
2188;BME280;1100;52.014;8.540;2023-04-09T00:27:01;101180.88;;;1.88;76.55
2188;BME280;1100;52.014;8.540;2023-04-09T00:29:26;101181.94;;;1.83;76.48
2188;BME280;1100;52.014;8.540;2023-04-09T00:31:52;101184.22;;;1.81;76.65
2188;BME280;1100;52.014;8.540;2023-04-09T00:34:17;101188.94;;;1.80;76.79
2188;BME280;1100;52.014;8.540;2023-04-09T00:36:42;101183.00;;;1.78;76.89
2188;BME280;1100;52.014;8.540;2023-04-09T00:39:08;101180.16;;;1.74;76.74
2188;BME280;1100;52.014;8.540;2023-04-09T00:41:33;101181.19;;;1.70;76.71
2188;BME280;1100;52.014;8.540;2023-04-09T00:43:58;101180.31;;;1.66;76.51
2188;BME280;1100;52.014;8.540;2023-04-09T00:46:23;101178.28;;;1.63;76.72
2188;BME280;1100;52.014;8.540;2023-04-09T00:48:49;101179.44;;;1.61;76.61
2188;BME280;1100;52.014;8.540;2023-04-09T00:51:15;101169.88;;;1.55;76.54
2188;BME280;1100;52.014;8.540;2023-04-09T00:53:40;101182.66;;;1.51;76.60
2188;BME280;1100;52.014;8.540;2023-04-09T00:56:09;101173.91;;;1.45;76.44
2188;BME280;1100;52.014;8.540;2023-04-09T00:58:35;101173.56;;;1.47;76.71
2188;BME280;1100;52.014;8.540;2023-04-09T01:01:00;101172.31;;;1.44;76.64
2188;BME280;1100;52.014;8.540;2023-04-09T01:03:26;101178.16;;;1.43;76.85
2188;BME280;1100;52.014;8.540;2023-04-09T01:08:27;101176.47;;;1.38;76.62
2188;BME280;1100;52.014;8.540;2023-04-09T01:11:12;101165.75;;;1.33;76.74
2188;BME280;1100;52.014;8.540;2023-04-09T01:17:05;101172.25;;;1.28;76.81
2188;BME280;1100;52.014;8.540;2023-04-09T01:26:02;101180.72;;;1.23;76.95
2188;BME280;1100;52.014;8.540;2023-04-09T01:28:32;101171.63;;;1.19;76.90
2188;BME280;1100;52.014;8.540;2023-04-09T01:31:14;101165.31;;;1.18;76.96
2188;BME280;1100;52.014;8.540;2023-04-09T01:33:40;101165.31;;;1.18;77.01
2188;BME280;1100;52.014;8.540;2023-04-09T01:36:06;101168.06;;;1.18;77.08
2188;BME280;1100;52.014;8.540;2023-04-09T01:38:34;101166.03;;;1.15;76.74
2188;BME280;1100;52.014;8.540;2023-04-09T01:41:00;101169.09;;;1.14;76.93
2188;BME280;1100;52.014;8.540;2023-04-09T01:43:27;101171.03;;;1.13;77.00
2188;BME280;1100;52.014;8.540;2023-04-09T01:45:53;101173.22;;;1.07;76.96
2188;BME280;1100;52.014;8.540;2023-04-09T01:48:19;101184.88;;;1.04;77.14
2188;BME280;1100;52.014;8.540;2023-04-09T01:50:45;101166.28;;;0.97;76.88
2188;BME280;1100;52.014;8.540;2023-04-09T01:53:10;101176.00;;;0.95;76.96
2188;BME280;1100;52.014;8.540;2023-04-09T01:55:36;101175.53;;;0.93;76.89
2188;BME280;1100;52.014;8.540;2023-04-09T01:58:01;101169.28;;;0.92;77.19
2188;BME280;1100;52.014;8.540;2023-04-09T02:00:33;101171.34;;;0.95;77.26
2188;BME280;1100;52.014;8.540;2023-04-09T02:03:10;101166.56;;;0.92;76.99
2188;BME280;1100;52.014;8.540;2023-04-09T02:05:53;101166.97;;;0.94;76.94
2188;BME280;1100;52.014;8.540;2023-04-09T02:08:20;101164.50;;;0.89;77.15
2188;BME280;1100;52.014;8.540;2023-04-09T02:10:50;101167.25;;;0.89;77.09
2188;BME280;1100;52.014;8.540;2023-04-09T02:13:20;101168.03;;;0.90;76.99
2188;BME280;1100;52.014;8.540;2023-04-09T02:15:46;101168.38;;;0.88;77.12
2188;BME280;1100;52.014;8.540;2023-04-09T02:18:26;101156.88;;;0.82;76.90
2188;BME280;1100;52.014;8.540;2023-04-09T02:20:54;101167.34;;;0.80;77.21
2188;BME280;1100;52.014;8.540;2023-04-09T02:23:19;101158.25;;;0.76;77.10
2188;BME280;1100;52.014;8.540;2023-04-09T02:25:45;101157.69;;;0.70;77.03
2188;BME280;1100;52.014;8.540;2023-04-09T02:28:10;101162.25;;;0.66;77.01
2188;BME280;1100;52.014;8.540;2023-04-09T02:30:36;101155.06;;;0.61;77.19
2188;BME280;1100;52.014;8.540;2023-04-09T02:33:01;101159.06;;;0.64;77.29
2188;BME280;1100;52.014;8.540;2023-04-09T02:35:26;101159.06;;;0.64;77.17
2188;BME280;1100;52.014;8.540;2023-04-09T02:37:52;101153.16;;;0.62;76.97
2188;BME280;1100;52.014;8.540;2023-04-09T02:40:17;101157.81;;;0.61;77.11
2188;BME280;1100;52.014;8.540;2023-04-09T02:42:42;101153.84;;;0.59;77.25
2188;BME280;1100;52.014;8.540;2023-04-09T02:45:08;101150.63;;;0.57;77.13
2188;BME280;1100;52.014;8.540;2023-04-09T02:47:33;101158.06;;;0.56;77.26
2188;BME280;1100;52.014;8.540;2023-04-09T02:49:59;101154.84;;;0.54;77.32
2188;BME280;1100;52.014;8.540;2023-04-09T02:52:24;101156.34;;;0.52;77.41
2188;BME280;1100;52.014;8.540;2023-04-09T02:54:51;101152.81;;;0.51;77.44
2188;BME280;1100;52.014;8.540;2023-04-09T02:57:16;101150.75;;;0.48;77.18
2188;BME280;1100;52.014;8.540;2023-04-09T02:59:42;101148.84;;;0.48;77.19
2188;BME280;1100;52.014;8.540;2023-04-09T03:02:07;101154.31;;;0.48;77.27
2188;BME280;1100;52.014;8.540;2023-04-09T03:04:32;101145.63;;;0.46;77.32
2188;BME280;1100;52.014;8.540;2023-04-09T03:06:57;101154.19;;;0.45;77.20
2188;BME280;1100;52.014;8.540;2023-04-09T03:09:23;101147.00;;;0.40;77.26
2188;BME280;1100;52.014;8.540;2023-04-09T03:11:48;101148.59;;;0.41;77.38
2188;BME280;1100;52.014;8.540;2023-04-09T03:14:14;101146.19;;;0.40;77.43
2188;BME280;1100;52.014;8.540;2023-04-09T03:16:39;101142.69;;;0.39;77.24
2188;BME280;1100;52.014;8.540;2023-04-09T03:19:04;101141.06;;;0.38;77.41
2188;BME280;1100;52.014;8.540;2023-04-09T03:21:30;101137.22;;;0.39;77.34
2188;BME280;1100;52.014;8.540;2023-04-09T03:23:56;101136.75;;;0.37;77.41
2188;BME280;1100;52.014;8.540;2023-04-09T03:26:21;101135.50;;;0.34;77.27
2188;BME280;1100;52.014;8.540;2023-04-09T03:28:46;101130.38;;;0.33;77.25
2188;BME280;1100;52.014;8.540;2023-04-09T03:31:12;101132.66;;;0.31;77.50
2188;BME280;1100;52.014;8.540;2023-04-09T03:33:38;101136.97;;;0.32;77.43
2188;BME280;1100;52.014;8.540;2023-04-09T03:36:03;101131.84;;;0.30;77.21
2188;BME280;1100;52.014;8.540;2023-04-09T03:38:29;101120.47;;;0.28;77.39
2188;BME280;1100;52.014;8.540;2023-04-09T03:40:57;101126.63;;;0.25;77.48
2188;BME280;1100;52.014;8.540;2023-04-09T03:43:22;101123.09;;;0.24;77.48
2188;BME280;1100;52.014;8.540;2023-04-09T03:45:47;101126.38;;;0.30;77.82
2188;BME280;1100;52.014;8.540;2023-04-09T03:48:13;101121.16;;;0.38;77.57
2188;BME280;1100;52.014;8.540;2023-04-09T03:50:39;101130.72;;;0.44;77.78
2188;BME280;1100;52.014;8.540;2023-04-09T03:53:05;101124.22;;;0.48;77.61
2188;BME280;1100;52.014;8.540;2023-04-09T03:55:30;101124.22;;;0.48;77.79
2188;BME280;1100;52.014;8.540;2023-04-09T03:57:55;101132.06;;;0.50;77.58
2188;BME280;1100;52.014;8.540;2023-04-09T04:00:21;101125.00;;;0.49;77.31
2188;BME280;1100;52.014;8.540;2023-04-09T04:02:46;101123.88;;;0.50;77.51
2188;BME280;1100;52.014;8.540;2023-04-09T04:05:12;101119.63;;;0.53;77.63
2188;BME280;1100;52.014;8.540;2023-04-09T04:07:37;101126.81;;;0.57;77.98
2188;BME280;1100;52.014;8.540;2023-04-09T04:10:06;101122.34;;;0.65;77.95
2188;BME280;1100;52.014;8.540;2023-04-09T04:12:31;101124.75;;;0.67;77.74
2188;BME280;1100;52.014;8.540;2023-04-09T04:14:57;101122.47;;;0.69;77.92
2188;BME280;1100;52.014;8.540;2023-04-09T04:17:22;101115.16;;;0.73;77.87
2188;BME280;1100;52.014;8.540;2023-04-09T04:19:47;101118.88;;;0.81;77.97
2188;BME280;1100;52.014;8.540;2023-04-09T04:22:13;101123.44;;;0.89;78.01
2188;BME280;1100;52.014;8.540;2023-04-09T04:24:41;101121.25;;;0.95;77.87
2188;BME280;1100;52.014;8.540;2023-04-09T04:27:06;101122.59;;;1.01;78.03
2188;BME280;1100;52.014;8.540;2023-04-09T04:29:32;101120.31;;;1.03;77.98
2188;BME280;1100;52.014;8.540;2023-04-09T04:31:57;101126.22;;;1.05;78.22
2188;BME280;1100;52.014;8.540;2023-04-09T04:34:23;101131.00;;;1.08;78.15
2188;BME280;1100;52.014;8.540;2023-04-09T04:36:48;101134.19;;;1.10;78.01
2188;BME280;1100;52.014;8.540;2023-04-09T04:39:13;101131.47;;;1.10;78.19
2188;BME280;1100;52.014;8.540;2023-04-09T04:41:39;101131.00;;;1.08;78.22
2188;BME280;1100;52.014;8.540;2023-04-09T04:44:04;101132.84;;;1.04;78.20
2188;BME280;1100;52.014;8.540;2023-04-09T04:46:30;101139.47;;;1.03;78.26
2188;BME280;1100;52.014;8.540;2023-04-09T04:48:55;101138.69;;;1.03;78.02
2188;BME280;1100;52.014;8.540;2023-04-09T04:51:20;101136.75;;;1.03;78.14
2188;BME280;1100;52.014;8.540;2023-04-09T04:53:46;101128.75;;;0.98;78.26
2188;BME280;1100;52.014;8.540;2023-04-09T04:56:13;101130.69;;;0.97;78.13
2188;BME280;1100;52.014;8.540;2023-04-09T04:58:38;101142.00;;;0.96;78.25
2188;BME280;1100;52.014;8.540;2023-04-09T05:01:04;101128.09;;;0.89;78.20
2188;BME280;1100;52.014;8.540;2023-04-09T05:03:29;101131.53;;;0.85;78.31
2188;BME280;1100;52.014;8.540;2023-04-09T05:05:55;101142.84;;;0.84;78.05
2188;BME280;1100;52.014;8.540;2023-04-09T05:08:20;101138.84;;;0.81;78.37
2188;BME280;1100;52.014;8.540;2023-04-09T05:10:45;101143.06;;;0.79;78.27
2188;BME280;1100;52.014;8.540;2023-04-09T05:13:11;101143.41;;;0.77;78.57
2188;BME280;1100;52.014;8.540;2023-04-09T05:15:37;101147.66;;;0.74;78.41
2188;BME280;1100;52.014;8.540;2023-04-09T05:18:04;101142.88;;;0.71;78.36
2188;BME280;1100;52.014;8.540;2023-04-09T05:20:32;101147.53;;;0.71;78.30
2188;BME280;1100;52.014;8.540;2023-04-09T05:22:57;101144.38;;;0.69;78.53
2188;BME280;1100;52.014;8.540;2023-04-09T05:25:22;101151.41;;;0.70;78.64
2188;BME280;1100;52.014;8.540;2023-04-09T05:27:48;101148.00;;;0.73;78.88
2188;BME280;1100;52.014;8.540;2023-04-09T05:30:15;101154.34;;;0.77;79.03
2188;BME280;1100;52.014;8.540;2023-04-09T05:32:41;101149.81;;;0.81;78.86
2188;BME280;1100;52.014;8.540;2023-04-09T05:35:07;101149.13;;;0.84;78.92
2188;BME280;1100;52.014;8.540;2023-04-09T05:37:32;101145.69;;;0.88;78.95
2188;BME280;1100;52.014;8.540;2023-04-09T05:39:57;101150.91;;;0.93;78.84
2188;BME280;1100;52.014;8.540;2023-04-09T05:42:22;101150.22;;;0.96;79.21
2188;BME280;1100;52.014;8.540;2023-04-09T05:44:48;101152.59;;;0.97;78.57
2188;BME280;1100;52.014;8.540;2023-04-09T05:47:13;101160.72;;;0.94;78.74
2188;BME280;1100;52.014;8.540;2023-04-09T05:49:38;101149.44;;;0.95;79.12
2188;BME280;1100;52.014;8.540;2023-04-09T05:52:04;101154.56;;;0.97;79.22
2188;BME280;1100;52.014;8.540;2023-04-09T05:54:30;101150.22;;;0.96;79.04
2188;BME280;1100;52.014;8.540;2023-04-09T05:56:55;101159.69;;;0.98;78.75
2188;BME280;1100;52.014;8.540;2023-04-09T05:59:21;101150.44;;;1.03;79.05
2188;BME280;1100;52.014;8.540;2023-04-09T06:01:46;101147.00;;;1.06;79.18
2188;BME280;1100;52.014;8.540;2023-04-09T06:04:12;101155.66;;;1.08;78.92
2188;BME280;1100;52.014;8.540;2023-04-09T06:06:37;101153.81;;;1.13;78.95
2188;BME280;1100;52.014;8.540;2023-04-09T06:09:03;101148.78;;;1.15;79.13
2188;BME280;1100;52.014;8.540;2023-04-09T06:11:29;101156.66;;;1.16;79.02
2188;BME280;1100;52.014;8.540;2023-04-09T06:13:54;101155.19;;;1.19;78.83
2188;BME280;1100;52.014;8.540;2023-04-09T06:16:21;101163.81;;;1.21;79.17
2188;BME280;1100;52.014;8.540;2023-04-09T06:18:47;101160.38;;;1.24;79.08
2188;BME280;1100;52.014;8.540;2023-04-09T06:21:14;101161.66;;;1.27;78.99
2188;BME280;1100;52.014;8.540;2023-04-09T06:23:40;101163.34;;;1.31;79.19
2188;BME280;1100;52.014;8.540;2023-04-09T06:26:05;101164.69;;;1.38;79.22
2188;BME280;1100;52.014;8.540;2023-04-09T06:28:31;101168.41;;;1.45;79.37
2188;BME280;1100;52.014;8.540;2023-04-09T06:31:00;101166.84;;;1.44;79.16
2188;BME280;1100;52.014;8.540;2023-04-09T06:33:25;101167.03;;;1.52;79.44
2188;BME280;1100;52.014;8.540;2023-04-09T06:35:51;101172.97;;;1.54;79.17
2188;BME280;1100;52.014;8.540;2023-04-09T06:38:16;101171.91;;;1.58;79.49
2188;BME280;1100;52.014;8.540;2023-04-09T06:40:42;101173.31;;;1.68;79.50
2188;BME280;1100;52.014;8.540;2023-04-09T06:43:07;101178.22;;;1.75;79.36
2188;BME280;1100;52.014;8.540;2023-04-09T06:45:34;101174.41;;;1.80;79.26
2188;BME280;1100;52.014;8.540;2023-04-09T06:47:59;101168.56;;;1.81;79.22
2188;BME280;1100;52.014;8.540;2023-04-09T06:50:25;101167.88;;;1.84;79.45
2188;BME280;1100;52.014;8.540;2023-04-09T06:52:51;101173.09;;;1.90;79.31
2188;BME280;1100;52.014;8.540;2023-04-09T06:55:17;101169.66;;;1.93;79.19
2188;BME280;1100;52.014;8.540;2023-04-09T06:57:42;101168.66;;;2.01;79.47
2188;BME280;1100;52.014;8.540;2023-04-09T07:00:09;101170.81;;;2.08;79.66
2188;BME280;1100;52.014;8.540;2023-04-09T07:02:35;101169.84;;;2.16;79.61
2188;BME280;1100;52.014;8.540;2023-04-09T07:05:00;101171.59;;;2.24;79.53
2188;BME280;1100;52.014;8.540;2023-04-09T07:07:26;101180.88;;;2.36;79.66
2188;BME280;1100;52.014;8.540;2023-04-09T07:09:52;101177.78;;;2.38;79.26
2188;BME280;1100;52.014;8.540;2023-04-09T07:12:31;101181.75;;;2.40;79.28
2188;BME280;1100;52.014;8.540;2023-04-09T07:15:01;101174.78;;;2.43;78.86
2188;BME280;1100;52.014;8.540;2023-04-09T07:17:28;101172.91;;;2.47;79.33
2188;BME280;1100;52.014;8.540;2023-04-09T07:19:54;101174.56;;;2.52;79.28
2188;BME280;1100;52.014;8.540;2023-04-09T07:22:20;101175.91;;;2.58;79.31
2188;BME280;1100;52.014;8.540;2023-04-09T07:24:46;101173.25;;;2.61;79.15
2188;BME280;1100;52.014;8.540;2023-04-09T07:27:18;101180.31;;;2.63;79.23
2188;BME280;1100;52.014;8.540;2023-04-09T07:29:43;101182.88;;;2.71;79.36
2188;BME280;1100;52.014;8.540;2023-04-09T07:32:09;101181.97;;;2.83;79.34
2188;BME280;1100;52.014;8.540;2023-04-09T07:34:34;101181.38;;;2.94;79.50
2188;BME280;1100;52.014;8.540;2023-04-09T07:36:59;101190.06;;;2.96;79.27
2188;BME280;1100;52.014;8.540;2023-04-09T07:39:24;101188.13;;;2.96;79.18
2188;BME280;1100;52.014;8.540;2023-04-09T07:41:51;101188.28;;;3.04;79.66
2188;BME280;1100;52.014;8.540;2023-04-09T07:44:16;101190.38;;;3.10;79.64
2188;BME280;1100;52.014;8.540;2023-04-09T07:46:42;101195.53;;;3.12;79.15
2188;BME280;1100;52.014;8.540;2023-04-09T07:49:08;101192.09;;;3.19;79.36
2188;BME280;1100;52.014;8.540;2023-04-09T07:51:33;101202.97;;;3.31;79.12
2188;BME280;1100;52.014;8.540;2023-04-09T07:53:58;101205.50;;;3.40;79.19
2188;BME280;1100;52.014;8.540;2023-04-09T07:56:27;101209.19;;;3.48;79.25
2188;BME280;1100;52.014;8.540;2023-04-09T07:58:52;101203.38;;;3.53;79.38
2188;BME280;1100;52.014;8.540;2023-04-09T08:01:17;101202.28;;;3.58;79.13
2188;BME280;1100;52.014;8.540;2023-04-09T08:03:45;101212.63;;;3.65;79.45
2188;BME280;1100;52.014;8.540;2023-04-09T08:06:10;101208.44;;;3.71;79.38
2188;BME280;1100;52.014;8.540;2023-04-09T08:08:36;101211.31;;;3.78;78.98
2188;BME280;1100;52.014;8.540;2023-04-09T08:11:01;101208.47;;;3.94;79.15
2188;BME280;1100;52.014;8.540;2023-04-09T08:13:26;101209.53;;;4.09;79.17
2188;BME280;1100;52.014;8.540;2023-04-09T08:15:52;101201.09;;;4.22;78.99
2188;BME280;1100;52.014;8.540;2023-04-09T08:18:17;101206.03;;;4.36;79.17
2188;BME280;1100;52.014;8.540;2023-04-09T08:20:43;101213.09;;;4.60;79.14
2188;BME280;1100;52.014;8.540;2023-04-09T08:23:12;101215.78;;;4.84;79.28
2188;BME280;1100;52.014;8.540;2023-04-09T08:25:37;101212.66;;;5.16;78.94
2188;BME280;1100;52.014;8.540;2023-04-09T08:28:03;101210.34;;;5.53;79.03
2188;BME280;1100;52.014;8.540;2023-04-09T08:30:28;101210.28;;;5.83;78.51
2188;BME280;1100;52.014;8.540;2023-04-09T08:32:54;101207.81;;;6.13;77.98
2188;BME280;1100;52.014;8.540;2023-04-09T08:35:19;101204.94;;;6.47;78.05
2188;BME280;1100;52.014;8.540;2023-04-09T08:37:44;101205.22;;;6.87;78.16
2188;BME280;1100;52.014;8.540;2023-04-09T08:40:10;101208.19;;;7.34;78.01
2188;BME280;1100;52.014;8.540;2023-04-09T08:42:39;101203.56;;;7.71;77.38
2188;BME280;1100;52.014;8.540;2023-04-09T08:45:07;101210.75;;;8.20;77.62
2188;BME280;1100;52.014;8.540;2023-04-09T08:47:35;101205.19;;;8.49;77.21
2188;BME280;1100;52.014;8.540;2023-04-09T08:50:00;101208.38;;;8.73;76.16
2188;BME280;1100;52.014;8.540;2023-04-09T08:52:33;101208.25;;;9.17;76.07
2188;BME280;1100;52.014;8.540;2023-04-09T08:54:58;101209.34;;;9.41;76.32
2188;BME280;1100;52.014;8.540;2023-04-09T08:57:24;101200.47;;;9.68;76.14
2188;BME280;1100;52.014;8.540;2023-04-09T08:59:49;101197.59;;;9.87;75.53
2188;BME280;1100;52.014;8.540;2023-04-09T09:02:14;101198.84;;;9.75;74.34
2188;BME280;1100;52.014;8.540;2023-04-09T09:04:47;101199.56;;;9.86;75.73
2188;BME280;1100;52.014;8.540;2023-04-09T09:07:14;101196.69;;;10.01;74.88
2188;BME280;1100;52.014;8.540;2023-04-09T09:09:53;101201.34;;;10.15;75.47
2188;BME280;1100;52.014;8.540;2023-04-09T09:12:33;101199.66;;;10.25;75.23
2188;BME280;1100;52.014;8.540;2023-04-09T09:14:59;101197.31;;;10.23;74.71
2188;BME280;1100;52.014;8.540;2023-04-09T09:17:25;101187.91;;;10.06;74.45
2188;BME280;1100;52.014;8.540;2023-04-09T09:19:50;101194.19;;;10.17;74.86
2188;BME280;1100;52.014;8.540;2023-04-09T09:22:16;101184.53;;;10.29;75.22
2188;BME280;1100;52.014;8.540;2023-04-09T09:24:45;101185.03;;;10.66;75.76
2188;BME280;1100;52.014;8.540;2023-04-09T09:27:29;101186.63;;;11.02;75.62
2188;BME280;1100;52.014;8.540;2023-04-09T09:29:55;101183.59;;;11.24;74.84
2188;BME280;1100;52.014;8.540;2023-04-09T09:32:21;101184.31;;;11.28;74.82
2188;BME280;1100;52.014;8.540;2023-04-09T09:35:02;101177.31;;;11.48;74.23
2188;BME280;1100;52.014;8.540;2023-04-09T09:37:29;101182.84;;;11.51;73.99
2188;BME280;1100;52.014;8.540;2023-04-09T09:39:55;101179.56;;;11.56;74.31
2188;BME280;1100;52.014;8.540;2023-04-09T09:42:21;101173.22;;;11.83;74.17
2188;BME280;1100;52.014;8.540;2023-04-09T09:44:46;101176.84;;;11.80;73.65
2188;BME280;1100;52.014;8.540;2023-04-09T09:47:13;101170.09;;;12.05;73.83
2188;BME280;1100;52.014;8.540;2023-04-09T09:49:39;101160.91;;;12.08;73.73
2188;BME280;1100;52.014;8.540;2023-04-09T09:52:08;101172.81;;;12.57;73.87
2188;BME280;1100;52.014;8.540;2023-04-09T09:54:46;101166.91;;;13.16;73.73
2188;BME280;1100;52.014;8.540;2023-04-09T09:57:12;101157.81;;;13.69;73.42
2188;BME280;1100;52.014;8.540;2023-04-09T10:00:01;101164.63;;;13.85;71.08
2188;BME280;1100;52.014;8.540;2023-04-09T10:02:30;101162.16;;;13.53;70.81
2188;BME280;1100;52.014;8.540;2023-04-09T10:05:03;101162.16;;;13.53;71.57
2188;BME280;1100;52.014;8.540;2023-04-09T10:07:30;101157.47;;;13.83;71.94
2188;BME280;1100;52.014;8.540;2023-04-09T10:09:56;101146.97;;;14.04;71.13
2188;BME280;1100;52.014;8.540;2023-04-09T10:12:23;101152.44;;;14.25;71.15
2188;BME280;1100;52.014;8.540;2023-04-09T10:14:50;101145.97;;;14.28;70.45
2188;BME280;1100;52.014;8.540;2023-04-09T10:17:17;101147.81;;;14.35;70.82
2188;BME280;1100;52.014;8.540;2023-04-09T10:19:58;101138.78;;;13.80;70.46
2188;BME280;1100;52.014;8.540;2023-04-09T10:22:28;101136.63;;;13.14;69.81
2188;BME280;1100;52.014;8.540;2023-04-09T10:24:56;101142.44;;;12.63;69.84
2188;BME280;1100;52.014;8.540;2023-04-09T10:27:22;101143.50;;;12.49;70.87
2188;BME280;1100;52.014;8.540;2023-04-09T10:29:48;101134.50;;;12.41;71.20
2188;BME280;1100;52.014;8.540;2023-04-09T10:32:20;101129.69;;;12.62;71.39
2188;BME280;1100;52.014;8.540;2023-04-09T10:34:46;101140.75;;;12.89;71.34
2188;BME280;1100;52.014;8.540;2023-04-09T10:37:24;101131.28;;;13.03;69.99
2188;BME280;1100;52.014;8.540;2023-04-09T10:39:50;101129.91;;;12.91;70.42
2188;BME280;1100;52.014;8.540;2023-04-09T10:42:36;101125.84;;;12.76;69.80
2188;BME280;1100;52.014;8.540;2023-04-09T10:45:11;101136.13;;;12.79;70.10
2188;BME280;1100;52.014;8.540;2023-04-09T10:47:38;101127.94;;;12.71;69.26
2188;BME280;1100;52.014;8.540;2023-04-09T10:50:23;101126.25;;;12.54;68.58
2188;BME280;1100;52.014;8.540;2023-04-09T10:52:56;101127.69;;;12.42;68.87
2188;BME280;1100;52.014;8.540;2023-04-09T10:55:36;101124.66;;;12.77;68.77
2188;BME280;1100;52.014;8.540;2023-04-09T10:58:06;101124.34;;;13.65;68.01
2188;BME280;1100;52.014;8.540;2023-04-09T11:00:37;101122.56;;;13.38;67.06
2188;BME280;1100;52.014;8.540;2023-04-09T11:03:19;101124.63;;;12.97;67.00
2188;BME280;1100;52.014;8.540;2023-04-09T11:05:50;101116.06;;;12.47;67.53
2188;BME280;1100;52.014;8.540;2023-04-09T11:08:16;101120.56;;;12.17;67.79
2188;BME280;1100;52.014;8.540;2023-04-09T11:10:44;101118.03;;;11.99;68.02
2188;BME280;1100;52.014;8.540;2023-04-09T11:13:14;101120.41;;;11.76;67.96
2188;BME280;1100;52.014;8.540;2023-04-09T11:15:40;101114.25;;;11.61;68.21
2188;BME280;1100;52.014;8.540;2023-04-09T11:18:06;101113.16;;;11.55;68.32
2188;BME280;1100;52.014;8.540;2023-04-09T11:20:34;101101.94;;;11.62;67.94
2188;BME280;1100;52.014;8.540;2023-04-09T11:23:00;101099.94;;;11.87;67.72
2188;BME280;1100;52.014;8.540;2023-04-09T11:25:28;101103.41;;;11.94;67.95
2188;BME280;1100;52.014;8.540;2023-04-09T11:27:54;101102.03;;;12.06;67.32
2188;BME280;1100;52.014;8.540;2023-04-09T11:30:19;101101.19;;;12.10;67.57
2188;BME280;1100;52.014;8.540;2023-04-09T11:32:46;101097.28;;;12.03;67.19
2188;BME280;1100;52.014;8.540;2023-04-09T11:35:13;101099.72;;;12.01;67.76
2188;BME280;1100;52.014;8.540;2023-04-09T11:37:39;101093.53;;;11.90;67.05
2188;BME280;1100;52.014;8.540;2023-04-09T11:40:05;101091.41;;;11.74;67.16
2188;BME280;1100;52.014;8.540;2023-04-09T11:42:31;101092.78;;;11.62;67.05
2188;BME280;1100;52.014;8.540;2023-04-09T11:44:56;101092.47;;;11.56;67.43
2188;BME280;1100;52.014;8.540;2023-04-09T11:47:22;101094.09;;;11.53;66.69
2188;BME280;1100;52.014;8.540;2023-04-09T11:49:48;101086.28;;;11.44;66.98
2188;BME280;1100;52.014;8.540;2023-04-09T11:52:14;101087.91;;;11.42;66.82
2188;BME280;1100;52.014;8.540;2023-04-09T11:54:47;101080.66;;;11.48;67.14
2188;BME280;1100;52.014;8.540;2023-04-09T11:57:13;101090.47;;;11.56;67.18
2188;BME280;1100;52.014;8.540;2023-04-09T11:59:38;101090.97;;;11.51;66.22
2188;BME280;1100;52.014;8.540;2023-04-09T12:02:05;101087.44;;;11.47;66.37
2188;BME280;1100;52.014;8.540;2023-04-09T12:04:31;101074.44;;;11.40;66.48
2188;BME280;1100;52.014;8.540;2023-04-09T12:06:56;101082.69;;;11.44;66.45
2188;BME280;1100;52.014;8.540;2023-04-09T12:09:25;101081.19;;;11.39;66.31
2188;BME280;1100;52.014;8.540;2023-04-09T12:11:51;101087.28;;;11.30;65.93
2188;BME280;1100;52.014;8.540;2023-04-09T12:14:18;101094.09;;;11.26;66.15
2188;BME280;1100;52.014;8.540;2023-04-09T12:16:49;101088.59;;;11.22;66.07
2188;BME280;1100;52.014;8.540;2023-04-09T12:19:15;101085.50;;;11.16;65.47
2188;BME280;1100;52.014;8.540;2023-04-09T12:21:48;101093.03;;;11.16;65.59
2188;BME280;1100;52.014;8.540;2023-04-09T12:24:18;101087.47;;;11.16;65.24
2188;BME280;1100;52.014;8.540;2023-04-09T12:26:47;101079.50;;;11.18;64.38
2188;BME280;1100;52.014;8.540;2023-04-09T12:29:13;101095.25;;;11.28;64.13
2188;BME280;1100;52.014;8.540;2023-04-09T12:31:40;101091.91;;;11.41;63.69
2188;BME280;1100;52.014;8.540;2023-04-09T12:34:05;101093.31;;;11.53;64.60
2188;BME280;1100;52.014;8.540;2023-04-09T12:36:30;101097.88;;;11.67;64.28
2188;BME280;1100;52.014;8.540;2023-04-09T12:38:56;101091.75;;;11.76;63.28
2188;BME280;1100;52.014;8.540;2023-04-09T12:41:21;101094.13;;;11.77;62.49
2188;BME280;1100;52.014;8.540;2023-04-09T12:43:46;101090.13;;;11.78;61.68
2188;BME280;1100;52.014;8.540;2023-04-09T12:46:13;101081.41;;;11.76;62.49
2188;BME280;1100;52.014;8.540;2023-04-09T12:48:38;101085.06;;;11.73;62.21
2188;BME280;1100;52.014;8.540;2023-04-09T12:51:04;101080.56;;;11.79;62.71
2188;BME280;1100;52.014;8.540;2023-04-09T12:53:30;101089.34;;;11.78;62.66
2188;BME280;1100;52.014;8.540;2023-04-09T12:55:55;101090.63;;;11.73;62.75
2188;BME280;1100;52.014;8.540;2023-04-09T12:58:21;101077.16;;;11.68;62.63
2188;BME280;1100;52.014;8.540;2023-04-09T13:00:46;101085.28;;;11.58;61.97
2188;BME280;1100;52.014;8.540;2023-04-09T13:03:11;101085.03;;;11.49;62.23
2188;BME280;1100;52.014;8.540;2023-04-09T13:05:37;101078.34;;;11.43;61.88
2188;BME280;1100;52.014;8.540;2023-04-09T13:08:02;101071.72;;;11.33;61.81
2188;BME280;1100;52.014;8.540;2023-04-09T13:10:29;101073.47;;;11.23;61.64
2188;BME280;1100;52.014;8.540;2023-04-09T13:12:55;101072.63;;;11.26;61.88
2188;BME280;1100;52.014;8.540;2023-04-09T13:15:20;101067.38;;;11.32;62.61
2188;BME280;1100;52.014;8.540;2023-04-09T13:17:46;101073.63;;;11.40;62.14
2188;BME280;1100;52.014;8.540;2023-04-09T13:20:11;101073.03;;;11.52;62.29
2188;BME280;1100;52.014;8.540;2023-04-09T13:22:37;101072.19;;;11.55;62.09
2188;BME280;1100;52.014;8.540;2023-04-09T13:25:03;101073.09;;;11.49;61.93
2188;BME280;1100;52.014;8.540;2023-04-09T13:27:28;101064.00;;;11.44;61.92